Time,TemperatureF,DewpointF,PressureIn,WindDirection,WindDirectionDegrees,WindSpeedMPH,WindSpeedGustMPH,Humidity,HourlyPrecipIn,Conditions,Clouds,dailyrainin,SoftwareType,DateUTC
2013-09-29 00:04:00,49.0,49.0,30.28,ENE,63,0.0,0.0,100,0.00,,,0.00,VWS V14.00,2013-09-29 04:04:00,
2013-09-29 00:05:00,49.0,49.0,30.29,ENE,63,0.0,0.0,100,0.00,,,0.00,VWS V14.00,2013-09-29 04:05:00,
2013-09-29 00:10:00,48.8,48.8,30.28,ENE,63,0.0,0.0,100,0.00,,,0.00,VWS V14.00,2013-09-29 04:10:00,
2013-09-29 00:15:00,48.8,48.8,30.28,ENE,63,0.0,0.0,100,0.00,,,0.00,VWS V14.00,2013-09-29 04:15:00,
2013-09-29 00:20:00,48.8,48.8,30.28,ENE,63,0.0,0.0,100,0.00,,,0.00,VWS V14.00,2013-09-29 04:20:00,
2013-09-29 00:25:00,48.7,48.7,30.28,ENE,63,0.0,0.0,100,0.00,,,0.00,VWS V14.00,2013-09-29 04:25:00,
2013-09-29 00:30:00,48.5,48.5,30.28,ENE,63,0.0,0.0,100,0.00,,,0.00,VWS V14.00,2013-09-29 04:30:00,
2013-09-29 00:35:00,48.4,48.4,30.28,ENE,63,0.0,0.0,100,0.00,,,0.00,VWS V14.00,2013-09-29 04:35:00,
2013-09-29 00:40:00,48.3,48.3,30.28,ENE,63,0.0,0.0,100,0.00,,,0.00,VWS V14.00,2013-09-29 04:40:00,
2013-09-29 00:45:00,48.2,48.2,30.27,ENE,63,0.0,0.0,100,0.00,,,0.00,VWS V14.00,2013-09-29 04:45:00,
2013-09-29 00:50:00,48.3,48.3,30.27,ENE,63,0.0,0.0,100,0.00,,,0.00,VWS V14.00,2013-09-29 04:50:00,
2013-09-29 00:55:00,48.1,48.1,30.27,ENE,63,0.0,0.0,100,0.00,,,0.00,VWS V14.00,2013-09-29 04:55:00,
2013-09-29 01:00:00,47.9,47.9,30.28,ENE,63,0.0,0.0,100,0.00,,,0.00,VWS V14.00,2013-09-29 05:00:00,
2013-09-29 01:05:00,47.9,47.9,30.27,ENE,63,0.0,0.0,100,0.00,,,0.00,VWS V14.00,2013-09-29 05:05:00,
2013-09-29 01:10:00,47.8,47.8,30.28,ENE,63,0.0,0.0,100,0.00,,,0.00,VWS V14.00,2013-09-29 05:10:00,
2013-09-29 01:15:00,47.8,47.8,30.28,ENE,63,0.0,0.0,100,0.00,,,0.00,VWS V14.00,2013-09-29 05:15:00,
2013-09-29 01:20:00,47.8,47.8,30.28,ENE,63,0.0,0.0,100,0.00,,,0.00,VWS V14.00,2013-09-29 05:20:00,
2013-09-29 01:25:00,47.8,47.8,30.28,ENE,63,0.0,0.0,100,0.00,,,0.00,VWS V14.00,2013-09-29 05:25:00,
2013-09-29 01:30:00,47.6,47.6,30.27,ENE,63,0.0,0.0,100,0.00,,,0.00,VWS V14.00,2013-09-29 05:30:00,
2013-09-29 01:35:00,47.6,47.6,30.27,ENE,63,0.0,0.0,100,0.00,,,0.00,VWS V14.00,2013-09-29 05:35:00,
2013-09-29 01:40:00,47.6,47.6,30.27,ENE,63,0.0,0.0,100,0.00,,,0.00,VWS V14.00,2013-09-29 05:40:00,
2013-09-29 01:45:00,47.8,47.8,30.27,ENE,63,0.0,0.0,100,0.00,,,0.00,VWS V14.00,2013-09-29 05:45:00,
2013-09-29 01:50:00,47.6,47.6,30.27,ENE,63,0.0,0.0,100,0.00,,,0.00,VWS V14.00,2013-09-29 05:50:00,
2013-09-29 01:55:00,47.6,47.6,30.27,ENE,63,0.0,0.0,100,0.00,,,0.00,VWS V14.00,2013-09-29 05:55:00,
2013-09-29 02:00:00,47.6,47.6,30.27,ENE,63,0.0,0.0,100,0.00,,,0.00,VWS V14.00,2013-09-29 06:00:00,
2013-09-29 02:05:00,47.6,47.6,30.27,ENE,63,0.0,0.0,100,0.00,,,0.00,VWS V14.00,2013-09-29 06:05:00,
2013-09-29 02:10:00,47.6,47.6,30.26,ENE,63,0.0,0.0,100,0.00,,,0.00,VWS V14.00,2013-09-29 06:10:00,
2013-09-29 02:15:00,47.8,47.8,30.27,ENE,63,0.0,0.0,100,0.00,,,0.00,VWS V14.00,2013-09-29 06:15:00,
2013-09-29 02:20:00,47.8,47.8,30.27,ENE,63,0.0,0.0,100,0.00,,,0.00,VWS V14.00,2013-09-29 06:20:00,
2013-09-29 02:24:00,47.9,47.9,30.26,ENE,63,0.0,0.0,100,0.00,,,0.00,VWS V14.00,2013-09-29 06:24:00,
2013-09-29 02:29:00,47.8,47.8,30.26,ENE,63,0.0,0.0,100,0.00,,,0.00,VWS V14.00,2013-09-29 06:29:00,
2013-09-29 02:34:00,47.6,47.6,30.26,ENE,63,0.0,0.0,100,0.00,,,0.00,VWS V14.00,2013-09-29 06:34:00,
2013-09-29 02:39:00,47.5,47.5,30.26,ENE,63,0.0,0.0,100,0.00,,,0.00,VWS V14.00,2013-09-29 06:39:00,
2013-09-29 02:44:00,47.4,47.4,30.26,ENE,63,0.0,0.0,100,0.00,,,0.00,VWS V14.00,2013-09-29 06:44:00,
2013-09-29 02:49:00,47.1,47.1,30.26,ENE,63,0.0,0.0,100,0.00,,,0.00,VWS V14.00,2013-09-29 06:49:00,
2013-09-29 02:54:00,46.9,46.9,30.25,ENE,63,0.0,0.0,100,0.00,,,0.00,VWS V14.00,2013-09-29 06:54:00,
2013-09-29 02:59:00,46.8,46.8,30.25,ENE,63,0.0,0.0,100,0.00,,,0.00,VWS V14.00,2013-09-29 06:59:00,
2013-09-29 03:04:00,46.6,46.6,30.25,ENE,63,0.0,0.0,100,0.00,,,0.00,VWS V14.00,2013-09-29 07:04:00,
2013-09-29 03:09:00,46.5,46.5,30.25,ENE,63,0.0,0.0,100,0.00,,,0.00,VWS V14.00,2013-09-29 07:09:00,
2013-09-29 03:14:00,46.3,46.3,30.25,ENE,63,0.0,0.0,100,0.00,,,0.00,VWS V14.00,2013-09-29 07:14:00,
2013-09-29 03:19:00,46.2,46.2,30.25,ENE,63,0.0,0.0,100,0.00,,,0.00,VWS V14.00,2013-09-29 07:19:00,
2013-09-29 03:24:00,46.2,46.2,30.25,ENE,63,0.0,0.0,100,0.00,,,0.00,VWS V14.00,2013-09-29 07:24:00,
2013-09-29 03:29:00,46.1,46.1,30.24,ENE,63,0.0,0.0,100,0.00,,,0.00,VWS V14.00,2013-09-29 07:29:00,
2013-09-29 03:34:00,45.9,45.9,30.24,ENE,63,0.0,0.0,100,0.00,,,0.00,VWS V14.00,2013-09-29 07:34:00,
2013-09-29 03:39:00,45.8,45.8,30.24,ENE,63,0.0,0.0,100,0.00,,,0.00,VWS V14.00,2013-09-29 07:39:00,
2013-09-29 03:44:00,45.6,45.6,30.24,ENE,63,0.0,0.0,100,0.00,,,0.00,VWS V14.00,2013-09-29 07:44:00,
2013-09-29 03:49:00,45.8,45.8,30.24,ENE,63,0.0,0.0,100,0.00,,,0.00,VWS V14.00,2013-09-29 07:49:00,
2013-09-29 03:54:00,45.8,45.8,30.24,ENE,63,0.0,0.0,100,0.00,,,0.00,VWS V14.00,2013-09-29 07:54:00,
2013-09-29 03:59:00,45.8,45.8,30.24,ENE,63,0.0,0.0,100,0.00,,,0.00,VWS V14.00,2013-09-29 07:59:00,
2013-09-29 04:04:00,45.8,45.8,30.24,ENE,63,0.0,0.0,100,0.00,,,0.00,VWS V14.00,2013-09-29 08:04:00,
2013-09-29 04:09:00,45.8,45.8,30.24,ENE,63,0.0,0.0,100,0.00,,,0.00,VWS V14.00,2013-09-29 08:09:00,
2013-09-29 04:14:00,45.6,45.6,30.24,ENE,63,0.0,0.0,100,0.00,,,0.00,VWS V14.00,2013-09-29 08:14:00,
2013-09-29 04:19:00,45.6,45.6,30.24,ENE,63,0.0,0.0,100,0.00,,,0.00,VWS V14.00,2013-09-29 08:19:00,
2013-09-29 04:24:00,45.5,45.5,30.24,ENE,63,0.0,0.0,100,0.00,,,0.00,VWS V14.00,2013-09-29 08:24:00,
2013-09-29 04:29:00,45.5,45.5,30.24,ENE,63,0.0,0.0,100,0.00,,,0.00,VWS V14.00,2013-09-29 08:29:00,
2013-09-29 04:34:00,45.6,45.6,30.24,ENE,63,0.0,0.0,100,0.00,,,0.00,VWS V14.00,2013-09-29 08:34:00,
2013-09-29 04:39:00,45.8,45.8,30.24,ENE,63,0.0,0.0,100,0.00,,,0.00,VWS V14.00,2013-09-29 08:39:00,
2013-09-29 04:44:00,45.6,45.6,30.24,ENE,63,0.0,0.0,100,0.00,,,0.00,VWS V14.00,2013-09-29 08:44:00,
2013-09-29 04:49:00,45.8,45.8,30.24,ENE,63,0.0,0.0,100,0.00,,,0.00,VWS V14.00,2013-09-29 08:49:00,
2013-09-29 04:54:00,45.8,45.8,30.24,ENE,63,0.0,0.0,100,0.00,,,0.00,VWS V14.00,2013-09-29 08:54:00,
2013-09-29 04:59:00,45.9,45.9,30.24,ENE,63,0.0,0.0,100,0.00,,,0.00,VWS V14.00,2013-09-29 08:59:00,
2013-09-29 05:04:00,46.2,46.2,30.24,ENE,63,0.0,0.0,100,0.00,,,0.00,VWS V14.00,2013-09-29 09:04:00,
2013-09-29 05:09:00,46.2,46.2,30.23,ENE,63,0.0,0.0,100,0.00,,,0.00,VWS V14.00,2013-09-29 09:09:00,
2013-09-29 05:14:00,46.3,46.3,30.24,ENE,63,0.0,0.0,100,0.00,,,0.00,VWS V14.00,2013-09-29 09:14:00,
2013-09-29 05:19:00,46.2,46.2,30.24,ENE,63,0.0,0.0,100,0.00,,,0.00,VWS V14.00,2013-09-29 09:19:00,
2013-09-29 05:24:00,46.1,46.1,30.24,ENE,63,0.0,0.0,100,0.00,,,0.00,VWS V14.00,2013-09-29 09:24:00,
2013-09-29 05:29:00,45.9,45.9,30.24,ENE,63,0.0,0.0,100,0.00,,,0.00,VWS V14.00,2013-09-29 09:29:00,
2013-09-29 05:34:00,45.6,45.6,30.24,ENE,63,0.0,0.0,100,0.00,,,0.00,VWS V14.00,2013-09-29 09:34:00,
2013-09-29 05:39:00,45.5,45.5,30.24,ENE,63,0.0,0.0,100,0.01,,,0.01,VWS V14.00,2013-09-29 09:39:00,
2013-09-29 05:44:00,45.3,45.3,30.24,ENE,63,0.0,0.0,100,0.01,,,0.01,VWS V14.00,2013-09-29 09:44:00,
2013-09-29 05:49:00,45.3,45.3,30.25,ENE,63,0.0,0.0,100,0.01,,,0.01,VWS V14.00,2013-09-29 09:49:00,
2013-09-29 05:54:00,45.2,45.2,30.24,ENE,63,0.0,0.0,100,0.01,,,0.01,VWS V14.00,2013-09-29 09:54:00,
2013-09-29 05:59:00,45.2,45.2,30.24,ENE,63,0.0,0.0,100,0.01,,,0.01,VWS V14.00,2013-09-29 09:59:00,
2013-09-29 06:04:00,45.0,45.0,30.24,ENE,63,0.0,0.0,100,0.01,,,0.01,VWS V14.00,2013-09-29 10:04:00,
2013-09-29 06:09:00,45.0,45.0,30.24,ENE,63,0.0,0.0,100,0.01,,,0.01,VWS V14.00,2013-09-29 10:09:00,
2013-09-29 06:14:00,44.8,44.8,30.24,ENE,63,0.0,0.0,100,0.01,,,0.01,VWS V14.00,2013-09-29 10:14:00,
2013-09-29 06:19:00,44.8,44.8,30.24,ENE,63,0.0,0.0,100,0.01,,,0.01,VWS V14.00,2013-09-29 10:19:00,
2013-09-29 06:24:00,44.7,44.7,30.24,ENE,63,0.0,0.0,100,0.00,,,0.01,VWS V14.00,2013-09-29 10:24:00,
2013-09-29 06:29:00,44.7,44.7,30.24,ENE,63,0.0,0.0,100,0.00,,,0.01,VWS V14.00,2013-09-29 10:29:00,
2013-09-29 06:34:00,44.7,44.7,30.24,ENE,63,0.0,1.0,100,0.00,,,0.01,VWS V14.00,2013-09-29 10:34:00,
2013-09-29 06:39:00,44.7,44.7,30.24,ENE,63,0.0,1.0,100,0.00,,,0.01,VWS V14.00,2013-09-29 10:39:00,
2013-09-29 06:44:00,44.5,44.5,30.25,ENE,63,0.0,1.0,100,0.00,,,0.01,VWS V14.00,2013-09-29 10:44:00,
2013-09-29 06:49:00,44.4,44.4,30.25,ENE,63,0.0,1.0,100,0.00,,,0.01,VWS V14.00,2013-09-29 10:49:00,
2013-09-29 06:54:00,44.4,44.4,30.25,ENE,63,0.0,1.0,100,0.00,,,0.01,VWS V14.00,2013-09-29 10:54:00,
2013-09-29 06:59:00,44.3,44.3,30.25,ENE,63,0.0,1.0,100,0.00,,,0.01,VWS V14.00,2013-09-29 10:59:00,
2013-09-29 07:04:00,44.1,44.1,30.25,ENE,63,0.0,0.0,100,0.00,,,0.01,VWS V14.00,2013-09-29 11:04:00,
2013-09-29 07:09:00,44.1,44.1,30.25,ENE,63,0.0,0.0,100,0.00,,,0.01,VWS V14.00,2013-09-29 11:09:00,
2013-09-29 07:14:00,44.1,44.1,30.25,ENE,63,0.0,0.0,100,0.00,,,0.01,VWS V14.00,2013-09-29 11:14:00,
2013-09-29 07:19:00,44.3,44.3,30.24,ENE,63,0.0,0.0,100,0.00,,,0.01,VWS V14.00,2013-09-29 11:19:00,
2013-09-29 07:24:00,44.4,44.4,30.25,ENE,63,0.0,0.0,100,0.00,,,0.01,VWS V14.00,2013-09-29 11:24:00,
2013-09-29 07:29:00,44.4,44.4,30.25,ENE,63,0.0,1.0,100,0.00,,,0.01,VWS V14.00,2013-09-29 11:29:00,
2013-09-29 07:34:00,44.4,44.4,30.24,ENE,63,0.0,2.0,100,0.00,,,0.01,VWS V14.00,2013-09-29 11:34:00,
2013-09-29 07:39:00,44.5,44.5,30.24,ENE,63,0.0,2.0,100,0.00,,,0.01,VWS V14.00,2013-09-29 11:39:00,
2013-09-29 07:44:00,44.5,44.5,30.25,ENE,63,0.0,2.0,100,0.00,,,0.01,VWS V14.00,2013-09-29 11:44:00,
2013-09-29 07:49:00,44.5,44.5,30.25,ENE,63,0.0,2.0,100,0.00,,,0.01,VWS V14.00,2013-09-29 11:49:00,
2013-09-29 07:54:00,44.7,44.7,30.24,ENE,63,0.0,2.0,100,0.00,,,0.01,VWS V14.00,2013-09-29 11:54:00,
2013-09-29 07:59:00,44.8,44.8,30.24,ENE,63,0.0,2.0,100,0.00,,,0.01,VWS V14.00,2013-09-29 11:59:00,
2013-09-29 08:04:00,45.0,45.0,30.25,ENE,63,0.0,0.0,100,0.00,,,0.01,VWS V14.00,2013-09-29 12:04:00,
2013-09-29 08:09:00,45.2,45.2,30.24,ENE,63,0.0,0.0,100,0.00,,,0.01,VWS V14.00,2013-09-29 12:09:00,
2013-09-29 08:14:00,45.6,45.6,30.24,ENE,63,0.0,0.0,100,0.00,,,0.01,VWS V14.00,2013-09-29 12:14:00,
2013-09-29 08:19:00,45.9,45.9,30.24,ENE,63,0.0,0.0,100,0.00,,,0.01,VWS V14.00,2013-09-29 12:19:00,
2013-09-29 08:24:00,46.1,46.1,30.24,ENE,63,1.0,3.0,100,0.00,,,0.01,VWS V14.00,2013-09-29 12:24:00,
2013-09-29 08:29:00,46.2,46.2,30.25,ENE,63,0.0,3.0,100,0.00,,,0.01,VWS V14.00,2013-09-29 12:29:00,
2013-09-29 08:34:00,46.6,46.6,30.25,ENE,63,0.0,0.0,100,0.00,,,0.01,VWS V14.00,2013-09-29 12:34:00,
2013-09-29 08:39:00,46.9,46.9,30.25,ENE,63,0.0,0.0,100,0.00,,,0.01,VWS V14.00,2013-09-29 12:39:00,
2013-09-29 08:44:00,47.2,47.2,30.25,ENE,63,0.0,0.0,100,0.00,,,0.01,VWS V14.00,2013-09-29 12:44:00,
2013-09-29 08:49:00,47.4,47.4,30.25,ENE,63,0.0,2.0,100,0.00,,,0.01,VWS V14.00,2013-09-29 12:49:00,
2013-09-29 08:54:00,47.2,47.2,30.26,ENE,63,0.0,3.0,100,0.00,,,0.01,VWS V14.00,2013-09-29 12:54:00,
2013-09-29 08:59:00,47.2,47.2,30.25,ENE,63,0.0,3.0,100,0.00,,,0.01,VWS V14.00,2013-09-29 12:59:00,
2013-09-29 09:04:00,47.3,47.3,30.26,ENE,63,0.0,4.0,100,0.00,,,0.01,VWS V14.00,2013-09-29 13:04:00,
2013-09-29 09:09:00,47.8,47.8,30.25,ENE,63,3.0,4.0,100,0.00,,,0.01,VWS V14.00,2013-09-29 13:09:00,
2013-09-29 09:14:00,47.9,47.9,30.26,ENE,63,0.0,4.0,100,0.00,,,0.01,VWS V14.00,2013-09-29 13:14:00,
2013-09-29 09:19:00,48.1,48.1,30.26,ENE,63,0.0,4.0,100,0.00,,,0.01,VWS V14.00,2013-09-29 13:19:00,
2013-09-29 09:24:00,48.5,48.5,30.26,ENE,63,0.0,4.0,100,0.00,,,0.01,VWS V14.00,2013-09-29 13:24:00,
2013-09-29 09:29:00,49.1,49.1,30.26,ENE,63,0.0,4.0,100,0.00,,,0.01,VWS V14.00,2013-09-29 13:29:00,
2013-09-29 09:34:00,49.6,49.6,30.26,ENE,63,1.0,2.0,100,0.00,,,0.01,VWS V14.00,2013-09-29 13:34:00,
2013-09-29 09:39:00,50.1,50.1,30.25,ENE,63,1.0,3.0,100,0.00,,,0.01,VWS V14.00,2013-09-29 13:39:00,
2013-09-29 09:44:00,50.7,50.7,30.26,ENE,63,0.0,3.0,100,0.00,,,0.01,VWS V14.00,2013-09-29 13:44:00,
2013-09-29 09:49:00,51.8,51.8,30.26,ENE,63,0.0,3.0,100,0.00,,,0.01,VWS V14.00,2013-09-29 13:49:00,
2013-09-29 09:54:00,51.9,51.9,30.25,ENE,63,0.0,3.0,100,0.00,,,0.01,VWS V14.00,2013-09-29 13:54:00,
2013-09-29 09:59:00,52.1,52.1,30.25,ENE,63,0.0,3.0,100,0.00,,,0.01,VWS V14.00,2013-09-29 13:59:00,
2013-09-29 10:04:00,52.5,52.5,30.25,ENE,63,0.0,1.0,100,0.00,,,0.01,VWS V14.00,2013-09-29 14:04:00,
2013-09-29 10:09:00,52.9,52.9,30.25,ENE,63,0.0,1.0,100,0.00,,,0.01,VWS V14.00,2013-09-29 14:09:00,
2013-09-29 10:14:00,53.1,53.1,30.26,ENE,63,0.0,4.0,100,0.00,,,0.01,VWS V14.00,2013-09-29 14:14:00,
2013-09-29 10:19:00,53.8,53.8,30.26,ENE,63,0.0,4.0,100,0.00,,,0.01,VWS V14.00,2013-09-29 14:19:00,
2013-09-29 10:24:00,54.5,54.5,30.25,ENE,63,0.0,4.0,100,0.00,,,0.01,VWS V14.00,2013-09-29 14:24:00,
2013-09-29 10:29:00,55.4,55.4,30.25,ENE,63,0.0,4.0,100,0.00,,,0.01,VWS V14.00,2013-09-29 14:29:00,
2013-09-29 10:34:00,56.2,56.2,30.25,ENE,63,0.0,1.0,100,0.00,,,0.01,VWS V14.00,2013-09-29 14:34:00,
2013-09-29 10:39:00,56.3,56.3,30.25,ENE,63,0.0,2.0,100,0.00,,,0.01,VWS V14.00,2013-09-29 14:39:00,
2013-09-29 10:44:00,56.5,56.5,30.25,ENE,63,3.0,3.0,100,0.00,,,0.01,VWS V14.00,2013-09-29 14:44:00,
2013-09-29 10:49:00,56.2,56.2,30.25,ENE,63,1.0,3.0,100,0.00,,,0.01,VWS V14.00,2013-09-29 14:49:00,
2013-09-29 10:54:00,56.3,56.3,30.24,ENE,63,0.0,3.0,100,0.00,,,0.01,VWS V14.00,2013-09-29 14:54:00,
2013-09-29 10:59:00,56.8,56.8,30.24,ENE,63,0.0,3.0,100,0.00,,,0.01,VWS V14.00,2013-09-29 14:59:00,
2013-09-29 11:04:00,56.9,56.9,30.24,ENE,63,0.0,3.0,100,0.00,,OVC008,0.01,VWS V14.00,2013-09-29 15:04:00,
2013-09-29 11:09:00,57.2,57.2,30.24,ENE,63,1.0,3.0,100,0.00,,OVC008,0.01,VWS V14.00,2013-09-29 15:09:00,
2013-09-29 11:14:00,57.6,57.3,30.24,ENE,63,1.0,3.0,99,0.00,,OVC008,0.01,VWS V14.00,2013-09-29 15:14:00,
2013-09-29 11:19:00,58.4,57.6,30.24,ENE,63,2.0,3.0,97,0.00,,OVC008,0.01,VWS V14.00,2013-09-29 15:19:00,
2013-09-29 11:24:00,59.5,57.5,30.24,ENE,63,0.0,3.0,93,0.00,,OVC008,0.01,VWS V14.00,2013-09-29 15:24:00,
2013-09-29 11:29:00,60.3,57.4,30.23,ENE,63,0.0,3.0,90,0.00,,OVC008,0.01,VWS V14.00,2013-09-29 15:29:00,
2013-09-29 11:34:00,60.9,56.7,30.23,ENE,63,0.0,2.0,86,0.00,,OVC008,0.01,VWS V14.00,2013-09-29 15:34:00,
2013-09-29 11:39:00,61.7,56.5,30.23,ENE,63,1.0,3.0,83,0.00,,OVC008,0.01,VWS V14.00,2013-09-29 15:39:00,
2013-09-29 11:44:00,61.7,56.2,30.23,ENE,63,0.0,3.0,82,0.00,,OVC008,0.01,VWS V14.00,2013-09-29 15:44:00,
2013-09-29 11:49:00,62.1,56.2,30.23,ENE,63,0.0,3.0,81,0.00,,OVC008,0.01,VWS V14.00,2013-09-29 15:49:00,
2013-09-29 11:54:00,62.5,55.9,30.22,ENE,63,0.0,3.0,79,0.00,,OVC008,0.01,VWS V14.00,2013-09-29 15:54:00,
2013-09-29 11:59:00,62.8,55.5,30.22,ENE,63,1.0,3.0,77,0.00,,OVC008,0.01,VWS V14.00,2013-09-29 15:59:00,
2013-09-29 12:04:00,62.8,55.1,30.22,ENE,63,0.0,3.0,76,0.00,,FEW010,0.01,VWS V14.00,2013-09-29 16:04:00,
2013-09-29 12:09:00,62.9,55.6,30.22,ENE,63,1.0,3.0,77,0.00,,FEW010,0.01,VWS V14.00,2013-09-29 16:09:00,
2013-09-29 12:14:00,63.1,55.4,30.21,ENE,63,0.0,4.0,76,0.00,,FEW010,0.01,VWS V14.00,2013-09-29 16:14:00,
2013-09-29 12:19:00,63.2,55.5,30.22,ENE,63,0.0,4.0,76,0.00,,FEW010,0.01,VWS V14.00,2013-09-29 16:19:00,
2013-09-29 12:24:00,63.1,54.7,30.22,ENE,63,0.0,4.0,74,0.00,,FEW010,0.01,VWS V14.00,2013-09-29 16:24:00,
2013-09-29 12:29:00,62.9,54.1,30.22,ENE,63,0.0,4.0,73,0.00,,FEW010,0.01,VWS V14.00,2013-09-29 16:29:00,
2013-09-29 12:34:00,63.2,54.8,30.21,ENE,63,0.0,2.0,74,0.00,,FEW010,0.01,VWS V14.00,2013-09-29 16:34:00,
2013-09-29 12:39:00,63.7,54.5,30.21,ENE,63,2.0,2.0,72,0.00,,FEW010,0.01,VWS V14.00,2013-09-29 16:39:00,
2013-09-29 12:44:00,63.7,54.5,30.21,ENE,63,1.0,2.0,72,0.00,,FEW010,0.01,VWS V14.00,2013-09-29 16:44:00,
2013-09-29 12:49:00,63.9,53.9,30.21,ENE,63,1.0,3.0,70,0.00,,FEW010,0.01,VWS V14.00,2013-09-29 16:49:00,
2013-09-29 12:54:00,63.9,52.7,30.21,ENE,63,2.0,3.0,67,0.00,,FEW010,0.01,VWS V14.00,2013-09-29 16:54:00,
2013-09-29 12:59:00,64.2,53.0,30.21,ENE,63,1.0,3.0,67,0.00,,FEW010,0.01,VWS V14.00,2013-09-29 16:59:00,
2013-09-29 13:04:00,64.9,53.3,30.21,ENE,57,2.0,5.0,66,0.00,,CLR,0.01,VWS V14.00,2013-09-29 17:04:00,
2013-09-29 13:09:00,65.7,52.3,30.21,NE,56,1.0,5.0,62,0.00,,CLR,0.01,VWS V14.00,2013-09-29 17:09:00,
2013-09-29 13:14:00,66.1,51.4,30.20,NE,56,0.0,5.0,59,0.00,,CLR,0.01,VWS V14.00,2013-09-29 17:14:00,
2013-09-29 13:19:00,66.1,51.4,30.20,ENE,57,0.0,5.0,59,0.00,,CLR,0.01,VWS V14.00,2013-09-29 17:19:00,
2013-09-29 13:24:00,66.1,51.8,30.20,ENE,57,0.0,5.0,60,0.00,,CLR,0.01,VWS V14.00,2013-09-29 17:24:00,
2013-09-29 13:29:00,66.3,52.9,30.20,ENE,62,0.0,5.0,62,0.00,,CLR,0.01,VWS V14.00,2013-09-29 17:29:00,
2013-09-29 13:34:00,66.5,53.1,30.19,NNW,343,3.0,6.0,62,0.00,,CLR,0.01,VWS V14.00,2013-09-29 17:34:00,
2013-09-29 13:39:00,66.8,53.4,30.20,NNW,335,2.0,6.0,62,0.00,,CLR,0.01,VWS V14.00,2013-09-29 17:39:00,
2013-09-29 13:44:00,66.8,53.8,30.19,NNW,335,0.0,6.0,63,0.00,,CLR,0.01,VWS V14.00,2013-09-29 17:44:00,
2013-09-29 13:49:00,66.9,53.9,30.20,NNW,334,0.0,6.0,63,0.00,,CLR,0.01,VWS V14.00,2013-09-29 17:49:00,
2013-09-29 13:54:00,67.3,54.3,30.19,NNW,334,1.0,6.0,63,0.00,,CLR,0.01,VWS V14.00,2013-09-29 17:54:00,
2013-09-29 13:59:00,66.9,53.5,30.19,NNW,335,0.0,6.0,62,0.00,,CLR,0.01,VWS V14.00,2013-09-29 17:59:00,
2013-09-29 14:04:00,66.6,52.8,30.19,NNW,335,0.0,2.0,61,0.00,,CLR,0.01,VWS V14.00,2013-09-29 18:04:00,
2013-09-29 14:09:00,67.5,53.6,30.18,NNW,336,0.0,4.0,61,0.00,,CLR,0.01,VWS V14.00,2013-09-29 18:09:00,
2013-09-29 14:14:00,67.5,52.7,30.18,NNW,336,1.0,4.0,59,0.00,,CLR,0.01,VWS V14.00,2013-09-29 18:14:00,
2013-09-29 14:19:00,67.3,52.5,30.18,NNW,336,0.0,4.0,59,0.00,,CLR,0.01,VWS V14.00,2013-09-29 18:19:00,
2013-09-29 14:24:00,67.5,52.2,30.18,NNW,336,0.0,4.0,58,0.00,,CLR,0.01,VWS V14.00,2013-09-29 18:24:00,
2013-09-29 14:29:00,67.8,53.4,30.17,NNW,336,0.0,4.0,60,0.00,,CLR,0.01,VWS V14.00,2013-09-29 18:29:00,
2013-09-29 14:34:00,68.3,53.0,30.17,NNW,336,2.0,3.0,58,0.00,,CLR,0.01,VWS V14.00,2013-09-29 18:34:00,
2013-09-29 14:39:00,68.8,53.0,30.17,NNW,336,0.0,3.0,57,0.00,,CLR,0.01,VWS V14.00,2013-09-29 18:39:00,
2013-09-29 14:44:00,68.9,53.1,30.16,NNW,335,0.0,4.0,57,0.00,,CLR,0.01,VWS V14.00,2013-09-29 18:44:00,
2013-09-29 14:49:00,68.3,52.5,30.17,NNW,335,0.0,4.0,57,0.00,,CLR,0.01,VWS V14.00,2013-09-29 18:49:00,
2013-09-29 14:54:00,68.4,52.6,30.16,NNW,336,1.0,4.0,57,0.00,,CLR,0.01,VWS V14.00,2013-09-29 18:54:00,
2013-09-29 14:59:00,68.5,53.6,30.16,NNW,336,1.0,4.0,59,0.00,,CLR,0.01,VWS V14.00,2013-09-29 18:59:00,
2013-09-29 15:04:00,67.6,53.2,30.16,SE,136,0.0,6.0,60,0.00,,CLR,0.01,VWS V14.00,2013-09-29 19:04:00,
2013-09-29 15:09:00,67.6,54.1,30.16,SW,232,0.0,6.0,62,0.00,,CLR,0.01,VWS V14.00,2013-09-29 19:09:00,
2013-09-29 15:14:00,68.0,54.5,30.15,SW,232,1.0,6.0,62,0.00,,CLR,0.01,VWS V14.00,2013-09-29 19:14:00,
2013-09-29 15:19:00,68.0,54.1,30.16,SW,232,0.0,6.0,61,0.00,,CLR,0.01,VWS V14.00,2013-09-29 19:19:00,
2013-09-29 15:24:00,67.6,52.8,30.16,SW,232,1.0,6.0,59,0.00,,CLR,0.01,VWS V14.00,2013-09-29 19:24:00,
2013-09-29 15:29:00,67.5,53.6,30.15,SW,232,0.0,6.0,61,0.00,,CLR,0.01,VWS V14.00,2013-09-29 19:29:00,
2013-09-29 15:34:00,67.6,52.8,30.15,SW,233,1.0,3.0,59,0.00,,CLR,0.01,VWS V14.00,2013-09-29 19:34:00,
2013-09-29 15:39:00,67.8,53.4,30.15,SW,233,0.0,3.0,60,0.00,,CLR,0.01,VWS V14.00,2013-09-29 19:39:00,
2013-09-29 15:44:00,67.6,53.2,30.15,SW,233,1.0,3.0,60,0.00,,CLR,0.01,VWS V14.00,2013-09-29 19:44:00,
2013-09-29 15:48:00,67.3,52.0,30.15,SW,233,0.0,3.0,58,0.00,,CLR,0.01,VWS V14.00,2013-09-29 19:48:00,
2013-09-29 15:53:00,66.9,51.7,30.15,SW,233,0.0,3.0,58,0.00,,CLR,0.01,VWS V14.00,2013-09-29 19:53:00,
2013-09-29 15:58:00,66.9,52.6,30.15,SW,233,0.0,3.0,60,0.00,,CLR,0.01,VWS V14.00,2013-09-29 19:58:00,
2013-09-29 16:03:00,66.9,51.7,30.15,SW,233,2.0,3.0,58,0.00,,CLR,0.01,VWS V14.00,2013-09-29 20:03:00,
2013-09-29 16:08:00,67.1,53.7,30.15,SW,233,0.0,3.0,62,0.00,,CLR,0.01,VWS V14.00,2013-09-29 20:08:00,
2013-09-29 16:13:00,67.5,52.2,30.15,SW,233,0.0,3.0,58,0.00,,CLR,0.01,VWS V14.00,2013-09-29 20:13:00,
2013-09-29 16:18:00,67.3,53.4,30.15,SW,233,0.0,3.0,61,0.00,,CLR,0.01,VWS V14.00,2013-09-29 20:18:00,
2013-09-29 16:23:00,67.3,53.4,30.15,WSW,239,1.0,4.0,61,0.00,,CLR,0.01,VWS V14.00,2013-09-29 20:23:00,
2013-09-29 16:28:00,66.8,52.5,30.15,WNW,283,0.0,4.0,60,0.00,,CLR,0.01,VWS V14.00,2013-09-29 20:28:00,
2013-09-29 16:33:00,66.1,52.7,30.14,WNW,283,0.0,2.0,62,0.00,,CLR,0.01,VWS V14.00,2013-09-29 20:33:00,
2013-09-29 16:38:00,65.7,52.8,30.14,WNW,283,0.0,2.0,63,0.00,,CLR,0.01,VWS V14.00,2013-09-29 20:38:00,
2013-09-29 16:43:00,64.7,51.8,30.15,North,0,2.0,4.0,63,0.00,,CLR,0.01,VWS V14.00,2013-09-29 20:43:00,
2013-09-29 16:48:00,63.9,51.5,30.15,West,265,0.0,4.0,64,0.00,,CLR,0.01,VWS V14.00,2013-09-29 20:48:00,
2013-09-29 16:53:00,63.4,51.0,30.14,SW,214,2.0,4.0,64,0.00,,CLR,0.01,VWS V14.00,2013-09-29 20:53:00,
2013-09-29 16:58:00,62.9,50.5,30.14,SSW,205,0.0,4.0,64,0.00,,CLR,0.01,VWS V14.00,2013-09-29 20:58:00,
2013-09-29 17:03:00,62.5,49.3,30.14,SSW,199,0.0,3.0,62,0.00,,CLR,0.01,VWS V14.00,2013-09-29 21:03:00,
2013-09-29 17:08:00,62.5,51.4,30.15,SSW,199,0.0,3.0,67,0.00,,CLR,0.01,VWS V14.00,2013-09-29 21:08:00,
2013-09-29 17:13:00,62.0,50.5,30.15,SSW,200,1.0,3.0,66,0.00,,CLR,0.01,VWS V14.00,2013-09-29 21:13:00,
2013-09-29 17:18:00,61.7,50.2,30.14,SSW,200,0.0,3.0,66,0.00,,CLR,0.01,VWS V14.00,2013-09-29 21:18:00,
2013-09-29 17:23:00,61.2,49.8,30.15,SSW,198,0.0,3.0,66,0.00,,CLR,0.01,VWS V14.00,2013-09-29 21:23:00,
2013-09-29 17:28:00,60.6,50.0,30.15,South,187,0.0,3.0,68,0.00,,CLR,0.01,VWS V14.00,2013-09-29 21:28:00,
2013-09-29 17:33:00,60.1,49.9,30.15,South,185,0.0,0.0,69,0.00,,CLR,0.01,VWS V14.00,2013-09-29 21:33:00,
2013-09-29 17:38:00,59.5,49.3,30.15,South,185,0.0,2.0,69,0.00,,CLR,0.01,VWS V14.00,2013-09-29 21:38:00,
2013-09-29 17:43:00,59.2,49.4,30.15,South,185,0.0,2.0,70,0.00,,CLR,0.01,VWS V14.00,2013-09-29 21:43:00,
2013-09-29 17:48:00,58.6,49.2,30.15,South,185,0.0,2.0,71,0.00,,CLR,0.01,VWS V14.00,2013-09-29 21:48:00,
2013-09-29 17:53:00,58.1,49.1,30.14,South,185,0.0,2.0,72,0.00,,CLR,0.01,VWS V14.00,2013-09-29 21:53:00,
2013-09-29 17:58:00,57.7,49.1,30.15,South,185,0.0,2.0,73,0.00,,CLR,0.01,VWS V14.00,2013-09-29 21:58:00,
2013-09-29 18:03:00,57.1,48.9,30.15,South,185,0.0,0.0,74,0.00,,CLR,0.01,VWS V14.00,2013-09-29 22:03:00,
2013-09-29 18:08:00,56.5,49.0,30.14,South,185,0.0,2.0,76,0.00,,CLR,0.01,VWS V14.00,2013-09-29 22:08:00,
2013-09-29 18:13:00,56.0,48.9,30.15,South,185,0.0,2.0,77,0.00,,CLR,0.01,VWS V14.00,2013-09-29 22:13:00,
2013-09-29 18:18:00,55.7,49.0,30.15,South,185,0.0,2.0,78,0.00,,CLR,0.01,VWS V14.00,2013-09-29 22:18:00,
2013-09-29 18:23:00,55.3,48.9,30.15,South,185,0.0,2.0,79,0.00,,CLR,0.01,VWS V14.00,2013-09-29 22:23:00,
2013-09-29 18:28:00,55.0,48.6,30.14,South,184,0.0,3.0,79,0.00,,CLR,0.01,VWS V14.00,2013-09-29 22:28:00,
2013-09-29 18:33:00,54.8,48.8,30.15,South,181,0.0,2.0,80,0.00,,CLR,0.01,VWS V14.00,2013-09-29 22:33:00,
2013-09-29 18:38:00,54.5,48.8,30.15,South,181,0.0,2.0,81,0.00,,CLR,0.01,VWS V14.00,2013-09-29 22:38:00,
2013-09-29 18:43:00,54.4,49.0,30.15,South,181,0.0,2.0,82,0.00,,CLR,0.01,VWS V14.00,2013-09-29 22:43:00,
2013-09-29 18:48:00,54.2,48.8,30.14,South,181,0.0,2.0,82,0.00,,CLR,0.01,VWS V14.00,2013-09-29 22:48:00,
2013-09-29 18:53:00,54.1,49.1,30.14,South,181,1.0,3.0,83,0.00,,CLR,0.01,VWS V14.00,2013-09-29 22:53:00,
2013-09-29 18:58:00,54.1,48.4,30.15,South,181,2.0,3.0,81,0.00,,CLR,0.01,VWS V14.00,2013-09-29 22:58:00,
2013-09-29 19:03:00,54.0,48.3,30.14,South,181,0.0,2.0,81,0.00,,CLR,0.01,VWS V14.00,2013-09-29 23:03:00,
2013-09-29 19:08:00,53.8,48.1,30.15,South,181,0.0,2.0,81,0.00,,CLR,0.01,VWS V14.00,2013-09-29 23:08:00,
2013-09-29 19:13:00,53.5,48.2,30.15,South,180,0.0,2.0,82,0.00,,CLR,0.01,VWS V14.00,2013-09-29 23:13:00,
2013-09-29 19:18:00,53.4,47.7,30.15,South,179,0.0,2.0,81,0.00,,CLR,0.01,VWS V14.00,2013-09-29 23:18:00,
2013-09-29 19:23:00,53.1,47.8,30.15,South,179,0.0,2.0,82,0.00,,CLR,0.01,VWS V14.00,2013-09-29 23:23:00,
2013-09-29 19:28:00,52.9,47.2,30.15,South,179,0.0,2.0,81,0.00,,CLR,0.01,VWS V14.00,2013-09-29 23:28:00,
2013-09-29 19:33:00,52.8,47.8,30.15,South,179,0.0,1.0,83,0.00,,CLR,0.01,VWS V14.00,2013-09-29 23:33:00,
2013-09-29 19:38:00,52.6,47.9,30.14,South,179,0.0,1.0,84,0.00,,CLR,0.01,VWS V14.00,2013-09-29 23:38:00,
2013-09-29 19:43:00,52.5,48.1,30.15,SSE,163,0.0,3.0,85,0.00,,CLR,0.01,VWS V14.00,2013-09-29 23:43:00,
2013-09-29 19:48:00,52.3,48.2,30.15,SSE,163,2.0,3.0,86,0.00,,CLR,0.01,VWS V14.00,2013-09-29 23:48:00,
2013-09-29 19:53:00,52.2,48.5,30.15,SSE,163,2.0,3.0,87,0.00,,CLR,0.01,VWS V14.00,2013-09-29 23:53:00,
2013-09-29 19:58:00,52.2,48.8,30.15,SSE,163,0.0,3.0,88,0.00,,CLR,0.01,VWS V14.00,2013-09-29 23:58:00,
2013-09-29 20:03:00,52.0,48.9,30.14,SSE,163,1.0,1.0,89,0.00,,CLR,0.01,VWS V14.00,2013-09-30 00:03:00,
2013-09-29 20:08:00,51.9,49.1,30.15,SSE,163,0.0,2.0,90,0.00,,CLR,0.01,VWS V14.00,2013-09-30 00:08:00,
2013-09-29 20:13:00,51.9,49.4,30.15,SSE,163,0.0,2.0,91,0.00,,CLR,0.01,VWS V14.00,2013-09-30 00:13:00,
2013-09-29 20:18:00,51.8,49.3,30.14,SSE,163,0.0,2.0,91,0.00,,CLR,0.01,VWS V14.00,2013-09-30 00:18:00,
2013-09-29 20:23:00,51.8,49.5,30.14,SSE,163,0.0,2.0,92,0.00,,CLR,0.01,VWS V14.00,2013-09-30 00:23:00,
2013-09-29 20:28:00,51.6,49.7,30.14,SSE,163,0.0,2.0,93,0.00,,CLR,0.01,VWS V14.00,2013-09-30 00:28:00,
2013-09-29 20:33:00,51.6,49.9,30.15,South,174,3.0,3.0,94,0.00,,CLR,0.01,VWS V14.00,2013-09-30 00:33:00,
2013-09-29 20:38:00,51.5,49.8,30.14,South,176,0.0,3.0,94,0.00,,CLR,0.01,VWS V14.00,2013-09-30 00:38:00,
2013-09-29 20:43:00,51.5,49.8,30.14,South,178,0.0,3.0,94,0.00,,CLR,0.01,VWS V14.00,2013-09-30 00:43:00,
2013-09-29 20:48:00,51.3,49.9,30.14,South,172,1.0,3.0,95,0.00,,CLR,0.01,VWS V14.00,2013-09-30 00:48:00,
2013-09-29 20:53:00,51.2,49.8,30.14,SSE,160,0.0,4.0,95,0.00,,CLR,0.01,VWS V14.00,2013-09-30 00:53:00,
2013-09-29 20:58:00,50.9,49.5,30.14,SSE,161,0.0,4.0,95,0.00,,CLR,0.01,VWS V14.00,2013-09-30 00:58:00,
2013-09-29 21:03:00,50.4,49.0,30.14,SSE,161,0.0,1.0,95,0.00,,CLR,0.01,VWS V14.00,2013-09-30 01:03:00,
2013-09-29 21:08:00,50.0,48.6,30.14,SSE,161,2.0,2.0,95,0.00,,CLR,0.01,VWS V14.00,2013-09-30 01:08:00,
2013-09-29 21:13:00,49.4,48.0,30.14,SSE,161,0.0,2.0,95,0.00,,CLR,0.01,VWS V14.00,2013-09-30 01:13:00,
2013-09-29 21:18:00,49.1,48.0,30.14,SSE,161,0.0,2.0,96,0.00,,CLR,0.01,VWS V14.00,2013-09-30 01:18:00,
2013-09-29 21:23:00,48.8,47.7,30.15,SSE,161,0.0,2.0,96,0.00,,CLR,0.01,VWS V14.00,2013-09-30 01:23:00,
2013-09-29 21:28:00,48.7,47.6,30.14,SSE,161,0.0,2.0,96,0.00,,CLR,0.01,VWS V14.00,2013-09-30 01:28:00,
2013-09-29 21:33:00,48.4,47.6,30.14,SSE,161,0.0,0.0,97,0.00,,CLR,0.01,VWS V14.00,2013-09-30 01:33:00,
2013-09-29 21:38:00,48.2,47.4,30.14,SSE,161,0.0,0.0,97,0.00,,CLR,0.01,VWS V14.00,2013-09-30 01:38:00,
2013-09-29 21:43:00,47.9,47.4,30.14,SSE,161,0.0,0.0,98,0.00,,CLR,0.01,VWS V14.00,2013-09-30 01:43:00,
2013-09-29 21:48:00,47.8,47.0,30.14,SSE,161,0.0,0.0,97,0.00,,CLR,0.01,VWS V14.00,2013-09-30 01:48:00,
2013-09-29 21:53:00,47.5,46.7,30.14,SSE,161,0.0,0.0,97,0.00,,CLR,0.01,VWS V14.00,2013-09-30 01:53:00,
2013-09-29 21:58:00,47.2,46.7,30.14,SSE,161,0.0,0.0,98,0.00,,CLR,0.01,VWS V14.00,2013-09-30 01:58:00,
2013-09-29 22:03:00,47.1,46.6,30.14,SSE,161,0.0,0.0,98,0.00,,CLR,0.01,VWS V14.00,2013-09-30 02:03:00,
2013-09-29 22:08:00,46.8,46.3,30.14,SSE,161,0.0,0.0,98,0.00,,CLR,0.01,VWS V14.00,2013-09-30 02:08:00,
2013-09-29 22:13:00,46.6,46.1,30.14,SSE,161,0.0,0.0,98,0.00,,CLR,0.01,VWS V14.00,2013-09-30 02:13:00,
2013-09-29 22:18:00,46.5,46.0,30.14,SSE,161,0.0,0.0,98,0.00,,CLR,0.01,VWS V14.00,2013-09-30 02:18:00,
2013-09-29 22:23:00,46.3,46.0,30.15,SSE,161,0.0,0.0,99,0.00,,CLR,0.01,VWS V14.00,2013-09-30 02:23:00,
2013-09-29 22:28:00,46.2,45.9,30.14,SSE,161,0.0,0.0,99,0.00,,CLR,0.01,VWS V14.00,2013-09-30 02:28:00,
2013-09-29 22:33:00,46.1,45.8,30.14,SSE,161,0.0,0.0,99,0.00,,CLR,0.01,VWS V14.00,2013-09-30 02:33:00,
2013-09-29 22:38:00,45.9,45.6,30.14,SSE,161,0.0,0.0,99,0.00,,CLR,0.01,VWS V14.00,2013-09-30 02:38:00,
2013-09-29 22:43:00,45.9,45.6,30.15,SSE,161,0.0,0.0,99,0.00,,CLR,0.01,VWS V14.00,2013-09-30 02:43:00,
2013-09-29 22:48:00,45.8,45.5,30.15,SSE,161,0.0,0.0,99,0.00,,CLR,0.01,VWS V14.00,2013-09-30 02:48:00,
2013-09-29 22:53:00,45.8,45.8,30.14,SSE,161,0.0,0.0,100,0.00,,CLR,0.01,VWS V14.00,2013-09-30 02:53:00,
2013-09-29 22:58:00,45.8,45.5,30.15,SSE,161,0.0,0.0,99,0.00,,CLR,0.01,VWS V14.00,2013-09-30 02:58:00,
2013-09-29 23:03:00,45.6,45.3,30.15,SSE,161,0.0,0.0,99,0.00,,,0.01,VWS V14.00,2013-09-30 03:03:00,
2013-09-29 23:08:00,45.6,45.6,30.14,SSE,161,0.0,0.0,100,0.00,,,0.01,VWS V14.00,2013-09-30 03:08:00,
2013-09-29 23:13:00,45.6,45.6,30.14,SSE,161,0.0,0.0,100,0.00,,,0.01,VWS V14.00,2013-09-30 03:13:00,
2013-09-29 23:18:00,45.8,45.8,30.14,SSE,161,0.0,1.0,100,0.00,,,0.01,VWS V14.00,2013-09-30 03:18:00,
2013-09-29 23:23:00,45.8,45.8,30.14,SSE,161,0.0,1.0,100,0.00,,,0.01,VWS V14.00,2013-09-30 03:23:00,
2013-09-29 23:28:00,46.1,46.1,30.15,SSE,161,0.0,1.0,100,0.00,,,0.01,VWS V14.00,2013-09-30 03:28:00,
2013-09-29 23:33:00,46.2,46.2,30.14,SSE,161,0.0,0.0,100,0.00,,,0.01,VWS V14.00,2013-09-30 03:33:00,
2013-09-29 23:38:00,46.3,46.3,30.14,SSE,161,0.0,0.0,100,0.00,,,0.01,VWS V14.00,2013-09-30 03:38:00,
2013-09-29 23:43:00,46.6,46.6,30.14,SSE,161,0.0,0.0,100,0.00,,,0.01,VWS V14.00,2013-09-30 03:43:00,
2013-09-29 23:48:00,46.9,46.9,30.15,SSE,161,0.0,0.0,100,0.00,,,0.01,VWS V14.00,2013-09-30 03:48:00,
2013-09-29 23:53:00,47.2,47.2,30.14,SSE,161,0.0,0.0,100,0.00,,,0.01,VWS V14.00,2013-09-30 03:53:00,
2013-09-29 23:58:00,47.5,47.5,30.14,SSE,161,0.0,0.0,100,0.00,,,0.01,VWS V14.00,2013-09-30 03:58:00,